sensor_id;sensor_type;location;lat;lon;timestamp;pressure;altitude;pressure_sealevel;temperature;humidity
55263;BME280;41125;48.752;9.168;2023-02-03T00:00:20;98135.03;;;4.15;85.74
55263;BME280;41125;48.752;9.168;2023-02-03T00:00:51;98136.53;;;4.11;86.26
55263;BME280;41125;48.752;9.168;2023-02-03T00:01:22;98125.84;;;4.23;85.83
55263;BME280;41125;48.752;9.168;2023-02-03T00:01:54;98133.25;;;4.27;85.65
55263;BME280;41125;48.752;9.168;2023-02-03T00:02:25;98129.91;;;4.32;85.61
55263;BME280;41125;48.752;9.168;2023-02-03T00:03:00;98126.56;;;4.36;85.12
55263;BME280;41125;48.752;9.168;2023-02-03T00:03:34;98132.38;;;4.33;84.73
55263;BME280;41125;48.752;9.168;2023-02-03T00:04:07;98129.16;;;4.25;85.18
55263;BME280;41125;48.752;9.168;2023-02-03T00:04:38;98140.09;;;4.23;85.53
55263;BME280;41125;48.752;9.168;2023-02-03T00:05:10;98133.69;;;4.24;85.60
55263;BME280;41125;48.752;9.168;2023-02-03T00:05:41;98129.59;;;4.22;85.23
55263;BME280;41125;48.752;9.168;2023-02-03T00:06:13;98135.41;;;4.19;85.75
55263;BME280;41125;48.752;9.168;2023-02-03T00:06:45;98129.28;;;4.12;86.87
55263;BME280;41125;48.752;9.168;2023-02-03T00:07:18;98131.22;;;4.23;86.15
55263;BME280;41125;48.752;9.168;2023-02-03T00:07:49;98131.59;;;4.26;85.49
55263;BME280;41125;48.752;9.168;2023-02-03T00:08:22;98123.78;;;4.25;85.79
55263;BME280;41125;48.752;9.168;2023-02-03T00:08:57;98123.53;;;4.26;85.45
55263;BME280;41125;48.752;9.168;2023-02-03T00:09:29;98126.44;;;4.25;85.55
55263;BME280;41125;48.752;9.168;2023-02-03T00:10:05;98120.91;;;4.20;85.66
55263;BME280;41125;48.752;9.168;2023-02-03T00:10:38;98117.28;;;4.14;85.75
55263;BME280;41125;48.752;9.168;2023-02-03T00:11:13;98127.03;;;4.09;85.76
55263;BME280;41125;48.752;9.168;2023-02-03T00:11:44;98117.78;;;4.04;86.29
55263;BME280;41125;48.752;9.168;2023-02-03T00:12:16;98116.56;;;4.00;86.59
55263;BME280;41125;48.752;9.168;2023-02-03T00:12:52;98114.56;;;3.96;87.00
55263;BME280;41125;48.752;9.168;2023-02-03T00:13:24;98098.06;;;3.92;86.63
55263;BME280;41125;48.752;9.168;2023-02-03T00:13:57;98110.22;;;3.95;87.15
55263;BME280;41125;48.752;9.168;2023-02-03T00:14:28;98118.66;;;3.98;86.96
55263;BME280;41125;48.752;9.168;2023-02-03T00:14:59;98115.69;;;4.07;86.31
55263;BME280;41125;48.752;9.168;2023-02-03T00:15:30;98118.53;;;4.12;86.31
55263;BME280;41125;48.752;9.168;2023-02-03T00:16:02;98111.91;;;4.14;85.69
55263;BME280;41125;48.752;9.168;2023-02-03T00:16:34;98114.38;;;4.16;86.10
55263;BME280;41125;48.752;9.168;2023-02-03T00:17:05;98110.28;;;4.13;85.96
55263;BME280;41125;48.752;9.168;2023-02-03T00:17:36;98108.09;;;4.22;85.34
55263;BME280;41125;48.752;9.168;2023-02-03T00:18:14;98113.91;;;4.19;85.39
55263;BME280;41125;48.752;9.168;2023-02-03T00:18:45;98109.44;;;4.13;85.83
55263;BME280;41125;48.752;9.168;2023-02-03T00:19:16;98115.25;;;4.10;85.89
55263;BME280;41125;48.752;9.168;2023-02-03T00:19:47;98111.44;;;4.17;85.59
55263;BME280;41125;48.752;9.168;2023-02-03T00:20:20;98118.09;;;4.15;85.35
55263;BME280;41125;48.752;9.168;2023-02-03T00:20:51;98116.59;;;4.19;85.39
55263;BME280;41125;48.752;9.168;2023-02-03T00:21:22;98109.66;;;4.11;85.89
55263;BME280;41125;48.752;9.168;2023-02-03T00:21:53;98110.31;;;4.07;86.06
55263;BME280;41125;48.752;9.168;2023-02-03T00:22:25;98112.19;;;4.06;85.97
55263;BME280;41125;48.752;9.168;2023-02-03T00:23:05;98116.81;;;4.17;85.50
55263;BME280;41125;48.752;9.168;2023-02-03T00:23:36;98117.50;;;4.31;84.53
55263;BME280;41125;48.752;9.168;2023-02-03T00:24:08;98109.00;;;4.34;84.42
55263;BME280;41125;48.752;9.168;2023-02-03T00:24:39;98111.69;;;4.34;84.01
55263;BME280;41125;48.752;9.168;2023-02-03T00:25:10;98112.75;;;4.33;84.45
55263;BME280;41125;48.752;9.168;2023-02-03T00:25:44;98102.44;;;4.30;83.85
55263;BME280;41125;48.752;9.168;2023-02-03T00:26:16;98113.84;;;4.25;84.29
55263;BME280;41125;48.752;9.168;2023-02-03T00:26:48;98100.94;;;4.16;85.20
55263;BME280;41125;48.752;9.168;2023-02-03T00:27:19;98106.59;;;4.08;85.43
55263;BME280;41125;48.752;9.168;2023-02-03T00:27:51;98102.00;;;4.15;85.63
55263;BME280;41125;48.752;9.168;2023-02-03T00:28:22;98104.34;;;4.23;84.49
55263;BME280;41125;48.752;9.168;2023-02-03T00:28:53;98117.34;;;4.26;84.75
55263;BME280;41125;48.752;9.168;2023-02-03T00:29:25;98113.78;;;4.32;83.90
55263;BME280;41125;48.752;9.168;2023-02-03T00:29:56;98108.84;;;4.29;84.37
55263;BME280;41125;48.752;9.168;2023-02-03T00:30:27;98119.97;;;4.32;84.31
55263;BME280;41125;48.752;9.168;2023-02-03T00:30:58;98110.06;;;4.33;83.57
55263;BME280;41125;48.752;9.168;2023-02-03T00:31:31;98113.34;;;4.35;84.00
55263;BME280;41125;48.752;9.168;2023-02-03T00:32:03;98119.91;;;4.39;83.67
55263;BME280;41125;48.752;9.168;2023-02-03T00:32:35;98111.25;;;4.37;83.79
55263;BME280;41125;48.752;9.168;2023-02-03T00:33:07;98122.28;;;4.29;83.99
55263;BME280;41125;48.752;9.168;2023-02-03T00:33:42;98118.41;;;4.25;84.01
55263;BME280;41125;48.752;9.168;2023-02-03T00:34:13;98125.84;;;4.23;84.28
55263;BME280;41125;48.752;9.168;2023-02-03T00:34:45;98113.03;;;4.25;84.00
55263;BME280;41125;48.752;9.168;2023-02-03T00:35:16;98123.53;;;4.26;84.30
55263;BME280;41125;48.752;9.168;2023-02-03T00:35:48;98118.25;;;4.20;84.29
55263;BME280;41125;48.752;9.168;2023-02-03T00:36:19;98121.75;;;4.20;84.60
55263;BME280;41125;48.752;9.168;2023-02-03T00:36:50;98116.81;;;4.17;84.69
55263;BME280;41125;48.752;9.168;2023-02-03T00:37:23;98118.31;;;4.13;84.89
55263;BME280;41125;48.752;9.168;2023-02-03T00:37:56;98114.81;;;4.13;84.94
55263;BME280;41125;48.752;9.168;2023-02-03T00:38:28;98111.44;;;4.17;84.78
55263;BME280;41125;48.752;9.168;2023-02-03T00:39:00;98115.56;;;4.20;84.47
55263;BME280;41125;48.752;9.168;2023-02-03T00:39:32;98115.56;;;4.20;84.60
55263;BME280;41125;48.752;9.168;2023-02-03T00:40:03;98123.31;;;4.28;84.16
55263;BME280;41125;48.752;9.168;2023-02-03T00:40:38;98117.50;;;4.31;83.92
55263;BME280;41125;48.752;9.168;2023-02-03T00:41:09;98110.66;;;4.35;84.12
55263;BME280;41125;48.752;9.168;2023-02-03T00:41:40;98118.25;;;4.38;83.34
55263;BME280;41125;48.752;9.168;2023-02-03T00:42:12;98119.16;;;4.32;83.76
55263;BME280;41125;48.752;9.168;2023-02-03T00:42:43;98117.50;;;4.31;83.79
55263;BME280;41125;48.752;9.168;2023-02-03T00:43:15;98118.09;;;4.33;83.51
55263;BME280;41125;48.752;9.168;2023-02-03T00:43:47;98128.19;;;4.37;83.29
55263;BME280;41125;48.752;9.168;2023-02-03T00:44:18;98121.34;;;4.42;83.25
55263;BME280;41125;48.752;9.168;2023-02-03T00:44:50;98114.31;;;4.41;83.27
55263;BME280;41125;48.752;9.168;2023-02-03T00:45:21;98125.28;;;4.39;83.21
55263;BME280;41125;48.752;9.168;2023-02-03T00:45:52;98125.13;;;4.34;83.56
55263;BME280;41125;48.752;9.168;2023-02-03T00:46:24;98123.25;;;4.34;83.51
55263;BME280;41125;48.752;9.168;2023-02-03T00:46:55;98126.16;;;4.33;83.49
55263;BME280;41125;48.752;9.168;2023-02-03T00:47:29;98124.97;;;4.29;83.85
55263;BME280;41125;48.752;9.168;2023-02-03T00:48:03;98131.53;;;4.33;83.45
55263;BME280;41125;48.752;9.168;2023-02-03T00:48:36;98133.19;;;4.34;83.47
55263;BME280;41125;48.752;9.168;2023-02-03T00:49:07;98132.00;;;4.30;83.65
55263;BME280;41125;48.752;9.168;2023-02-03T00:49:42;98143.19;;;4.27;83.68
55263;BME280;41125;48.752;9.168;2023-02-03T00:50:14;98135.72;;;4.29;83.75
55263;BME280;41125;48.752;9.168;2023-02-03T00:50:47;98129.59;;;4.22;83.92
55263;BME280;41125;48.752;9.168;2023-02-03T00:51:18;98139.59;;;4.15;84.11
55263;BME280;41125;48.752;9.168;2023-02-03T00:51:51;98130.56;;;4.09;84.66
55263;BME280;41125;48.752;9.168;2023-02-03T00:52:23;98130.16;;;4.06;84.72
55263;BME280;41125;48.752;9.168;2023-02-03T00:52:54;98138.06;;;4.00;84.85
55263;BME280;41125;48.752;9.168;2023-02-03T00:53:26;98132.31;;;3.97;85.44
55263;BME280;41125;48.752;9.168;2023-02-03T00:53:57;98132.53;;;3.95;85.92
55263;BME280;41125;48.752;9.168;2023-02-03T00:54:29;98136.41;;;3.99;85.41
55263;BME280;41125;48.752;9.168;2023-02-03T00:55:03;98131.81;;;4.07;85.19
55263;BME280;41125;48.752;9.168;2023-02-03T00:55:34;98133.47;;;4.08;84.77
55263;BME280;41125;48.752;9.168;2023-02-03T00:56:06;98129.12;;;4.07;85.17
55263;BME280;41125;48.752;9.168;2023-02-03T00:56:42;98133.69;;;4.06;85.08
55263;BME280;41125;48.752;9.168;2023-02-03T00:57:14;98130.16;;;4.06;85.20
55263;BME280;41125;48.752;9.168;2023-02-03T00:57:45;98131.38;;;4.10;85.33
55263;BME280;41125;48.752;9.168;2023-02-03T00:58:17;98137.47;;;4.17;84.91
55263;BME280;41125;48.752;9.168;2023-02-03T00:58:48;98132.88;;;4.24;84.24
55263;BME280;41125;48.752;9.168;2023-02-03T00:59:20;98135.72;;;4.29;84.05
55263;BME280;41125;48.752;9.168;2023-02-03T00:59:51;98135.13;;;4.27;84.09
55263;BME280;41125;48.752;9.168;2023-02-03T01:00:24;98131.59;;;4.26;84.32
55263;BME280;41125;48.752;9.168;2023-02-03T01:00:55;98136.16;;;4.26;84.09
55263;BME280;41125;48.752;9.168;2023-02-03T01:01:27;98141.59;;;4.19;84.73
55263;BME280;41125;48.752;9.168;2023-02-03T01:01:58;98130.34;;;4.11;84.73
55263;BME280;41125;48.752;9.168;2023-02-03T01:02:29;98130.16;;;4.06;85.25
55263;BME280;41125;48.752;9.168;2023-02-03T01:03:01;98133.50;;;4.01;85.07
55263;BME280;41125;48.752;9.168;2023-02-03T01:03:32;98139.28;;;4.04;85.32
55263;BME280;41125;48.752;9.168;2023-02-03T01:04:04;98131.81;;;4.07;84.99
55263;BME280;41125;48.752;9.168;2023-02-03T01:04:35;98129.34;;;4.05;85.31
55263;BME280;41125;48.752;9.168;2023-02-03T01:05:09;98131.44;;;4.03;85.54
55263;BME280;41125;48.752;9.168;2023-02-03T01:05:40;98135.97;;;4.02;85.73
55263;BME280;41125;48.752;9.168;2023-02-03T01:06:19;98139.28;;;4.04;85.47
55263;BME280;41125;48.752;9.168;2023-02-03T01:06:50;98134.50;;;4.07;85.52
55263;BME280;41125;48.752;9.168;2023-02-03T01:07:30;98135.53;;;4.06;85.47
55263;BME280;41125;48.752;9.168;2023-02-03T01:08:03;98131.22;;;4.04;85.72
55263;BME280;41125;48.752;9.168;2023-02-03T01:08:34;98136.41;;;3.99;85.86
55263;BME280;41125;48.752;9.168;2023-02-03T01:09:06;98139.53;;;3.96;86.17
55263;BME280;41125;48.752;9.168;2023-02-03T01:09:38;98139.28;;;4.04;85.34
55263;BME280;41125;48.752;9.168;2023-02-03T01:10:10;98133.06;;;4.04;85.61
55263;BME280;41125;48.752;9.168;2023-02-03T01:10:41;98133.91;;;4.04;85.21
55263;BME280;41125;48.752;9.168;2023-02-03T01:11:15;98137.62;;;4.03;85.11
55263;BME280;41125;48.752;9.168;2023-02-03T01:11:47;98144.03;;;4.02;85.44
55263;BME280;41125;48.752;9.168;2023-02-03T01:12:18;98140.31;;;4.03;85.62
55263;BME280;41125;48.752;9.168;2023-02-03T01:12:50;98126.44;;;4.07;85.43
55263;BME280;41125;48.752;9.168;2023-02-03T01:13:21;98135.09;;;4.09;85.21
55263;BME280;41125;48.752;9.168;2023-02-03T01:13:57;98133.63;;;4.13;85.08
55263;BME280;41125;48.752;9.168;2023-02-03T01:14:32;98150.25;;;4.21;84.79
55263;BME280;41125;48.752;9.168;2023-02-03T01:15:04;98134.50;;;4.25;84.33
55263;BME280;41125;48.752;9.168;2023-02-03T01:15:37;98131.66;;;4.20;84.56
55263;BME280;41125;48.752;9.168;2023-02-03T01:16:09;98140.78;;;4.19;84.28
55263;BME280;41125;48.752;9.168;2023-02-03T01:16:44;98136.91;;;4.15;84.58
55263;BME280;41125;48.752;9.168;2023-02-03T01:17:18;98139.88;;;4.07;84.86
55263;BME280;41125;48.752;9.168;2023-02-03T01:17:50;98128.75;;;4.03;85.11
55263;BME280;41125;48.752;9.168;2023-02-03T01:18:23;98133.91;;;4.04;85.56
55263;BME280;41125;48.752;9.168;2023-02-03T01:18:57;98139.00;;;4.13;85.18
55263;BME280;41125;48.752;9.168;2023-02-03T01:19:28;98141.69;;;4.13;84.79
55263;BME280;41125;48.752;9.168;2023-02-03T01:19:59;98125.91;;;4.16;84.89
55263;BME280;41125;48.752;9.168;2023-02-03T01:20:33;98123.38;;;4.21;84.75
55263;BME280;41125;48.752;9.168;2023-02-03T01:21:10;98124.66;;;4.19;84.41
55263;BME280;41125;48.752;9.168;2023-02-03T01:21:44;98111.69;;;4.16;84.68
55263;BME280;41125;48.752;9.168;2023-02-03T01:22:16;98108.09;;;4.22;84.51
55263;BME280;41125;48.752;9.168;2023-02-03T01:22:47;98104.97;;;4.25;84.10
55263;BME280;41125;48.752;9.168;2023-02-03T01:23:18;98099.00;;;4.23;84.18
55263;BME280;41125;48.752;9.168;2023-02-03T01:23:50;98099.66;;;4.18;84.37
55263;BME280;41125;48.752;9.168;2023-02-03T01:24:21;98096.91;;;4.25;84.47
55263;BME280;41125;48.752;9.168;2023-02-03T01:24:53;98093.16;;;4.26;84.19
55263;BME280;41125;48.752;9.168;2023-02-03T01:25:25;98082.44;;;4.26;84.17
55263;BME280;41125;48.752;9.168;2023-02-03T01:26:01;98090.47;;;4.26;84.45
55263;BME280;41125;48.752;9.168;2023-02-03T01:26:33;98082.88;;;4.23;84.24
55263;BME280;41125;48.752;9.168;2023-02-03T01:27:04;98084.97;;;4.21;84.62
55263;BME280;41125;48.752;9.168;2023-02-03T01:27:36;98083.53;;;4.18;84.76
55263;BME280;41125;48.752;9.168;2023-02-03T01:28:11;98077.06;;;4.26;84.27
55263;BME280;41125;48.752;9.168;2023-02-03T01:28:56;98087.34;;;4.29;83.95
55263;BME280;41125;48.752;9.168;2023-02-03T01:29:28;98082.44;;;4.26;84.34
55263;BME280;41125;48.752;9.168;2023-02-03T01:29:59;98070.84;;;4.25;84.38
55263;BME280;41125;48.752;9.168;2023-02-03T01:30:31;98087.81;;;4.26;84.20
55263;BME280;41125;48.752;9.168;2023-02-03T01:31:21;98086.47;;;4.35;83.98
55263;BME280;41125;48.752;9.168;2023-02-03T01:31:53;98083.19;;;4.33;83.62
55263;BME280;41125;48.752;9.168;2023-02-03T01:32:24;98082.81;;;4.29;84.29
55263;BME280;41125;48.752;9.168;2023-02-03T01:32:55;98079.91;;;4.31;83.80
55263;BME280;41125;48.752;9.168;2023-02-03T01:33:27;98087.72;;;4.32;83.73
55263;BME280;41125;48.752;9.168;2023-02-03T01:33:58;98092.34;;;4.25;83.64
55263;BME280;41125;48.752;9.168;2023-02-03T01:34:30;98095.69;;;4.21;84.11
55263;BME280;41125;48.752;9.168;2023-02-03T01:35:01;98098.25;;;4.16;84.40
55263;BME280;41125;48.752;9.168;2023-02-03T01:35:33;98103.47;;;4.11;84.78
55263;BME280;41125;48.752;9.168;2023-02-03T01:36:07;98096.47;;;4.10;85.04
55263;BME280;41125;48.752;9.168;2023-02-03T01:36:39;98101.59;;;4.11;85.51
55263;BME280;41125;48.752;9.168;2023-02-03T01:37:10;98097.06;;;4.12;85.07
55263;BME280;41125;48.752;9.168;2023-02-03T01:37:41;98100.19;;;4.09;85.44
55263;BME280;41125;48.752;9.168;2023-02-03T01:38:12;98100.78;;;4.11;85.46
55263;BME280;41125;48.752;9.168;2023-02-03T01:38:45;98100.78;;;4.11;85.43
55263;BME280;41125;48.752;9.168;2023-02-03T01:39:17;98106.59;;;4.08;85.25
55263;BME280;41125;48.752;9.168;2023-02-03T01:39:48;98092.12;;;4.09;85.88
55263;BME280;41125;48.752;9.168;2023-02-03T01:40:19;98091.97;;;4.22;85.05
55263;BME280;41125;48.752;9.168;2023-02-03T01:40:51;98095.25;;;4.24;84.71
55263;BME280;41125;48.752;9.168;2023-02-03T01:41:25;98082.72;;;4.18;84.77
55263;BME280;41125;48.752;9.168;2023-02-03T01:41:57;98080.94;;;4.12;85.41
55263;BME280;41125;48.752;9.168;2023-02-03T01:42:32;98084.66;;;4.11;85.26
55263;BME280;41125;48.752;9.168;2023-02-03T01:43:03;98094.22;;;4.07;85.98
55263;BME280;41125;48.752;9.168;2023-02-03T01:43:40;98089.44;;;4.09;85.65
55263;BME280;41125;48.752;9.168;2023-02-03T01:44:34;98094.38;;;4.12;85.69
55263;BME280;41125;48.752;9.168;2023-02-03T01:45:07;98091.25;;;4.15;85.34
55263;BME280;41125;48.752;9.168;2023-02-03T01:45:40;98077.88;;;4.08;85.59
55263;BME280;41125;48.752;9.168;2023-02-03T01:46:42;98075.69;;;3.98;86.04
55263;BME280;41125;48.752;9.168;2023-02-03T01:47:26;98078.22;;;3.93;86.47
55263;BME280;41125;48.752;9.168;2023-02-03T01:47:58;98088.75;;;3.95;86.80
55263;BME280;41125;48.752;9.168;2023-02-03T01:48:33;98094.94;;;3.95;86.64
55263;BME280;41125;48.752;9.168;2023-02-03T01:49:33;98090.16;;;3.97;86.67
55263;BME280;41125;48.752;9.168;2023-02-03T01:50:12;98093.84;;;4.03;86.37
55263;BME280;41125;48.752;9.168;2023-02-03T01:50:45;98091.53;;;4.07;86.33
55263;BME280;41125;48.752;9.168;2023-02-03T01:51:17;98092.12;;;4.09;86.20
55263;BME280;41125;48.752;9.168;2023-02-03T01:51:49;98092.12;;;4.09;85.96
55263;BME280;41125;48.752;9.168;2023-02-03T01:52:23;98093.16;;;4.08;85.90
55263;BME280;41125;48.752;9.168;2023-02-03T01:53:00;98093.38;;;4.06;86.20
55263;BME280;41125;48.752;9.168;2023-02-03T01:53:33;98099.59;;;4.07;86.09
55263;BME280;41125;48.752;9.168;2023-02-03T01:54:07;98099.97;;;4.10;86.10
55263;BME280;41125;48.752;9.168;2023-02-03T01:54:43;98101.50;;;4.18;85.61
55263;BME280;41125;48.752;9.168;2023-02-03T01:55:19;98101.06;;;4.21;85.04
55263;BME280;41125;48.752;9.168;2023-02-03T01:55:51;98101.16;;;4.14;85.43
55263;BME280;41125;48.752;9.168;2023-02-03T01:56:24;98097.50;;;4.09;85.55
55263;BME280;41125;48.752;9.168;2023-02-03T01:57:04;98098.38;;;4.02;85.73
55263;BME280;41125;48.752;9.168;2023-02-03T01:57:41;98093.00;;;4.02;86.07
55263;BME280;41125;48.752;9.168;2023-02-03T01:58:20;98099.16;;;4.10;86.02
55263;BME280;41125;48.752;9.168;2023-02-03T01:59:00;98101.50;;;4.18;85.86
55263;BME280;41125;48.752;9.168;2023-02-03T01:59:33;98104.81;;;4.20;85.23
55263;BME280;41125;48.752;9.168;2023-02-03T02:00:06;98099.00;;;4.23;85.48
55263;BME280;41125;48.752;9.168;2023-02-03T02:00:38;98099.44;;;4.20;85.01
55263;BME280;41125;48.752;9.168;2023-02-03T02:01:10;98102.56;;;4.17;85.41
55263;BME280;41125;48.752;9.168;2023-02-03T02:01:42;98102.44;;;4.12;85.87
55263;BME280;41125;48.752;9.168;2023-02-03T02:02:14;98096.28;;;4.04;86.59
55263;BME280;41125;48.752;9.168;2023-02-03T02:02:46;98101.66;;;4.04;86.49
55263;BME280;41125;48.752;9.168;2023-02-03T02:03:22;98106.00;;;4.06;86.46
55263;BME280;41125;48.752;9.168;2023-02-03T02:03:56;98093.34;;;4.13;86.17
55263;BME280;41125;48.752;9.168;2023-02-03T02:04:35;98093.63;;;4.23;85.50
55263;BME280;41125;48.752;9.168;2023-02-03T02:05:33;98093.94;;;4.33;84.87
55263;BME280;41125;48.752;9.168;2023-02-03T02:06:08;98085.94;;;4.26;84.86
55263;BME280;41125;48.752;9.168;2023-02-03T02:06:40;98088.09;;;4.18;85.48
55263;BME280;41125;48.752;9.168;2023-02-03T02:07:11;98090.47;;;4.08;85.95
55263;BME280;41125;48.752;9.168;2023-02-03T02:07:45;98088.84;;;4.07;86.04
55263;BME280;41125;48.752;9.168;2023-02-03T02:08:19;98096.47;;;4.10;86.46
55263;BME280;41125;48.752;9.168;2023-02-03T02:08:53;98081.22;;;4.22;86.00
55263;BME280;41125;48.752;9.168;2023-02-03T02:09:27;98093.25;;;4.19;85.70
55263;BME280;41125;48.752;9.168;2023-02-03T02:09:59;98084.97;;;4.21;85.60
55263;BME280;41125;48.752;9.168;2023-02-03T02:10:31;98081.88;;;4.17;85.81
55263;BME280;41125;48.752;9.168;2023-02-03T02:11:04;98084.44;;;4.12;86.23
55263;BME280;41125;48.752;9.168;2023-02-03T02:11:36;98073.72;;;4.12;86.54
55263;BME280;41125;48.752;9.168;2023-02-03T02:12:10;98079.31;;;4.11;86.64
55263;BME280;41125;48.752;9.168;2023-02-03T02:12:41;98073.31;;;4.09;86.71
55263;BME280;41125;48.752;9.168;2023-02-03T02:13:14;98074.75;;;4.11;86.75
55263;BME280;41125;48.752;9.168;2023-02-03T02:13:46;98068.13;;;4.14;86.63
55263;BME280;41125;48.752;9.168;2023-02-03T02:14:21;98073.00;;;4.17;86.55
55263;BME280;41125;48.752;9.168;2023-02-03T02:14:53;98080.50;;;4.15;86.46
55263;BME280;41125;48.752;9.168;2023-02-03T02:15:51;98063.03;;;4.24;85.77
55263;BME280;41125;48.752;9.168;2023-02-03T02:17:09;98080.78;;;4.25;86.08
55263;BME280;41125;48.752;9.168;2023-02-03T02:18:05;98067.50;;;4.30;85.51
55263;BME280;41125;48.752;9.168;2023-02-03T02:19:29;98055.94;;;4.29;85.98
55263;BME280;41125;48.752;9.168;2023-02-03T02:20:37;98042.28;;;4.31;85.41
55263;BME280;41125;48.752;9.168;2023-02-03T02:24:17;98013.31;;;4.33;85.11
55263;BME280;41125;48.752;9.168;2023-02-03T02:25:42;98017.50;;;4.29;85.55
55263;BME280;41125;48.752;9.168;2023-02-03T02:32:25;98043.78;;;4.27;85.54
55263;BME280;41125;48.752;9.168;2023-02-03T02:33:12;98046.31;;;4.22;86.09
55263;BME280;41125;48.752;9.168;2023-02-03T02:33:59;98044.97;;;4.31;86.07
55263;BME280;41125;48.752;9.168;2023-02-03T02:36:10;98043.91;;;4.32;85.71
55263;BME280;41125;48.752;9.168;2023-02-03T02:37:27;98039.44;;;4.26;86.34
55263;BME280;41125;48.752;9.168;2023-02-03T02:38:40;98041.16;;;4.20;86.21
55263;BME280;41125;48.752;9.168;2023-02-03T02:39:42;98035.41;;;4.17;86.70
55263;BME280;41125;48.752;9.168;2023-02-03T02:40:41;98043.94;;;4.14;86.96
55263;BME280;41125;48.752;9.168;2023-02-03T02:41:34;98040.44;;;4.13;87.30
55263;BME280;41125;48.752;9.168;2023-02-03T02:42:35;98031.38;;;4.26;86.70
55263;BME280;41125;48.752;9.168;2023-02-03T02:43:20;98028.91;;;4.24;86.75
55263;BME280;41125;48.752;9.168;2023-02-03T02:44:21;98031.66;;;4.18;86.85
55263;BME280;41125;48.752;9.168;2023-02-03T02:45:03;98018.41;;;4.23;86.95
55263;BME280;41125;48.752;9.168;2023-02-03T02:45:49;98023.16;;;4.21;86.67
55263;BME280;41125;48.752;9.168;2023-02-03T02:46:42;98009.72;;;4.21;86.66
55263;BME280;41125;48.752;9.168;2023-02-03T02:47:18;98003.66;;;4.14;86.81
55263;BME280;41125;48.752;9.168;2023-02-03T02:47:50;97994.63;;;4.08;87.12
55263;BME280;41125;48.752;9.168;2023-02-03T02:48:35;97991.72;;;4.10;87.46
55263;BME280;41125;48.752;9.168;2023-02-03T02:49:31;97986.78;;;4.07;87.57
55263;BME280;41125;48.752;9.168;2023-02-03T02:50:18;97981.47;;;4.00;87.76
55263;BME280;41125;48.752;9.168;2023-02-03T02:50:55;97988.81;;;4.11;87.49
55263;BME280;41125;48.752;9.168;2023-02-03T02:51:28;97987.53;;;4.14;87.50
55263;BME280;41125;48.752;9.168;2023-02-03T02:52:04;97991.72;;;4.10;87.59
55263;BME280;41125;48.752;9.168;2023-02-03T02:52:40;97993.78;;;4.08;87.86
55263;BME280;41125;48.752;9.168;2023-02-03T02:53:13;98006.19;;;4.09;87.62
55263;BME280;41125;48.752;9.168;2023-02-03T02:53:49;98015.28;;;4.08;87.54
55263;BME280;41125;48.752;9.168;2023-02-03T02:54:24;98019.00;;;4.07;88.05
55263;BME280;41125;48.752;9.168;2023-02-03T02:55:00;98027.22;;;4.12;87.74
55263;BME280;41125;48.752;9.168;2023-02-03T02:55:34;98026.19;;;4.13;87.66
55263;BME280;41125;48.752;9.168;2023-02-03T02:56:10;98030.94;;;4.11;87.67
55263;BME280;41125;48.752;9.168;2023-02-03T02:56:46;98024.66;;;4.17;87.80
55263;BME280;41125;48.752;9.168;2023-02-03T02:57:20;98029.59;;;4.20;87.11
55263;BME280;41125;48.752;9.168;2023-02-03T02:57:58;98030.03;;;4.17;87.15
55263;BME280;41125;48.752;9.168;2023-02-03T02:58:31;98030.94;;;4.11;87.45
55263;BME280;41125;48.752;9.168;2023-02-03T02:59:06;98035.13;;;4.07;87.42
55263;BME280;41125;48.752;9.168;2023-02-03T02:59:37;98028.09;;;4.06;87.58
55263;BME280;41125;48.752;9.168;2023-02-03T03:00:09;98029.38;;;4.03;87.83
55263;BME280;41125;48.752;9.168;2023-02-03T03:00:42;98030.62;;;4.00;88.15
55263;BME280;41125;48.752;9.168;2023-02-03T03:01:15;98034.97;;;4.01;88.46
55263;BME280;41125;48.752;9.168;2023-02-03T03:01:46;98028.09;;;4.06;88.24
55263;BME280;41125;48.752;9.168;2023-02-03T03:02:18;98029.75;;;4.07;88.35
55263;BME280;41125;48.752;9.168;2023-02-03T03:02:49;98027.66;;;4.09;88.05
55263;BME280;41125;48.752;9.168;2023-02-03T03:03:23;98040.34;;;4.20;87.58
55263;BME280;41125;48.752;9.168;2023-02-03T03:03:54;98038.25;;;4.22;87.57
55263;BME280;41125;48.752;9.168;2023-02-03T03:04:30;98034.34;;;4.18;87.64
55263;BME280;41125;48.752;9.168;2023-02-03T03:05:08;98040.22;;;4.15;87.66
55263;BME280;41125;48.752;9.168;2023-02-03T03:05:55;98035.09;;;4.25;87.26
55263;BME280;41125;48.752;9.168;2023-02-03T03:06:33;98036.16;;;4.24;86.88
55263;BME280;41125;48.752;9.168;2023-02-03T03:07:23;98046.31;;;4.22;87.43
55263;BME280;41125;48.752;9.168;2023-02-03T03:07:58;98044.88;;;4.19;87.32
55263;BME280;41125;48.752;9.168;2023-02-03T03:08:40;98048.25;;;4.15;87.68
55263;BME280;41125;48.752;9.168;2023-02-03T03:09:31;98042.06;;;4.14;87.86
55263;BME280;41125;48.752;9.168;2023-02-03T03:10:11;98047.78;;;4.18;87.88
55263;BME280;41125;48.752;9.168;2023-02-03T03:10:43;98040.22;;;4.15;87.71
55263;BME280;41125;48.752;9.168;2023-02-03T03:11:17;98041.69;;;4.11;87.71
55263;BME280;41125;48.752;9.168;2023-02-03T03:11:58;98042.75;;;4.10;88.10
55263;BME280;41125;48.752;9.168;2023-02-03T03:12:34;98035.50;;;4.10;87.90
55263;BME280;41125;48.752;9.168;2023-02-03T03:13:11;98032.44;;;4.07;88.37
55263;BME280;41125;48.752;9.168;2023-02-03T03:13:50;98029.75;;;4.07;87.73
55263;BME280;41125;48.752;9.168;2023-02-03T03:14:22;98027.50;;;4.03;88.34
55263;BME280;41125;48.752;9.168;2023-02-03T03:15:02;98030.62;;;4.00;88.81
55263;BME280;41125;48.752;9.168;2023-02-03T03:15:35;98032.28;;;4.01;88.65
55263;BME280;41125;48.752;9.168;2023-02-03T03:16:09;98027.06;;;4.07;88.54
55263;BME280;41125;48.752;9.168;2023-02-03T03:16:45;98030.94;;;4.11;88.56
55263;BME280;41125;48.752;9.168;2023-02-03T03:17:25;98027.66;;;4.09;88.20
55263;BME280;41125;48.752;9.168;2023-02-03T03:18:14;98026.47;;;4.04;88.46
55263;BME280;41125;48.752;9.168;2023-02-03T03:18:59;98022.59;;;4.00;88.80
55263;BME280;41125;48.752;9.168;2023-02-03T03:19:40;98032.72;;;3.98;88.72
55263;BME280;41125;48.752;9.168;2023-02-03T03:20:21;98039.34;;;3.96;88.92
55263;BME280;41125;48.752;9.168;2023-02-03T03:20:56;98028.63;;;3.96;89.42
55263;BME280;41125;48.752;9.168;2023-02-03T03:21:43;98032.28;;;4.01;88.86